createdAt,value
2019-02-25T00:00:23.671Z,80.17
2019-02-25T00:01:23.760Z,80.17
2019-02-25T00:02:23.847Z,80.26
2019-02-25T00:03:23.944Z,80.26
2019-02-25T00:04:24.017Z,80.07
2019-02-25T00:05:24.107Z,80.64
2019-02-25T00:06:24.192Z,80.45
2019-02-25T00:07:24.283Z,80.36
2019-02-25T00:08:24.366Z,80.55
2019-02-25T00:09:24.455Z,80.74
2019-02-25T00:10:24.543Z,80.83
2019-02-25T00:11:24.624Z,80.26
2019-02-25T00:12:24.708Z,80.26
2019-02-25T00:13:24.796Z,80.55
2019-02-25T00:14:24.889Z,80.45
2019-02-25T00:15:24.974Z,80.45
2019-02-25T00:16:25.059Z,80.55
2019-02-25T00:17:25.142Z,80.26
2019-02-25T00:18:25.224Z,80.55
2019-02-25T00:19:25.311Z,80.45
2019-02-25T00:20:25.398Z,80.36
2019-02-25T00:21:25.484Z,80.55
2019-02-25T00:22:25.569Z,80.55
2019-02-25T00:23:25.667Z,80.55
2019-02-25T00:24:25.727Z,80.55
2019-02-25T00:25:25.812Z,80.55
2019-02-25T00:26:25.912Z,80.55
2019-02-25T00:27:25.995Z,80.26
2019-02-25T00:28:26.079Z,80.45
2019-02-25T00:29:26.169Z,80.26
2019-02-25T00:30:26.249Z,80.64
2019-02-25T00:31:26.336Z,80.55
2019-02-25T00:32:26.420Z,80.93
2019-02-25T00:33:26.508Z,80.64
2019-02-25T00:34:26.590Z,80.55
2019-02-25T00:35:26.671Z,80.74
2019-02-25T00:36:26.752Z,80.64
2019-02-25T00:37:26.847Z,80.55
2019-02-25T00:38:26.925Z,80.64
2019-02-25T00:39:27.012Z,80.74
2019-02-25T00:40:27.771Z,81.12
2019-02-25T00:41:27.192Z,81.02
2019-02-25T00:42:27.270Z,81.12
2019-02-25T00:43:27.359Z,81.12
2019-02-25T00:44:27.447Z,81.40
2019-02-25T00:45:27.532Z,80.64
2019-02-25T00:46:27.628Z,80.83
2019-02-25T00:47:27.691Z,80.55
2019-02-25T00:48:27.768Z,81.12
2019-02-25T00:49:27.861Z,80.74
2019-02-25T00:50:27.948Z,81.21
2019-02-25T00:51:28.031Z,80.93
2019-02-25T00:52:28.117Z,81.12
2019-02-25T00:53:28.192Z,80.98
2019-02-25T00:54:28.274Z,81.55
2019-02-25T00:55:28.362Z,81.40
2019-02-25T00:56:28.451Z,81.40
2019-02-25T00:57:28.533Z,81.07
2019-02-25T00:58:28.630Z,81.45
2019-02-25T00:59:28.703Z,81.68
2019-02-25T01:00:28.797Z,81.36
2019-02-25T01:01:28.885Z,81.55
2019-02-25T01:02:28.970Z,81.21
2019-02-25T01:03:29.049Z,81.64
2019-02-25T01:04:29.137Z,81.64
2019-02-25T01:05:29.225Z,81.36
2019-02-25T01:06:29.300Z,81.55
2019-02-25T01:07:29.389Z,80.98
2019-02-25T01:08:29.477Z,81.26
2019-02-25T01:09:29.560Z,80.88
2019-02-25T01:10:29.638Z,81.26
2019-02-25T01:11:29.731Z,81.17
2019-02-25T01:12:29.822Z,80.88
2019-02-25T01:13:29.915Z,81.02
2019-02-25T01:14:29.999Z,81.17
2019-02-25T01:15:30.086Z,80.98
2019-02-25T01:16:30.175Z,81.36
2019-02-25T01:17:30.259Z,81.26
2019-02-25T01:18:30.344Z,81.36
2019-02-25T01:19:30.425Z,81.36
2019-02-25T01:20:30.528Z,81.74
2019-02-25T01:21:30.592Z,81.36
2019-02-25T01:22:30.728Z,81.36
2019-02-25T01:23:30.771Z,81.26
2019-02-25T01:24:30.851Z,81.36
2019-02-25T01:25:30.933Z,81.07
2019-02-25T01:26:31.027Z,81.45
2019-02-25T01:27:31.129Z,81.36
2019-02-25T01:28:31.207Z,81.26
2019-02-25T01:29:31.308Z,81.17
2019-02-25T01:30:31.372Z,81.17
2019-02-25T01:31:31.456Z,81.83
2019-02-25T01:32:31.548Z,81.83
2019-02-25T01:33:31.628Z,81.49
2019-02-25T01:34:31.714Z,81.07
2019-02-25T01:35:31.808Z,81.30
2019-02-25T01:36:31.892Z,81.26
2019-02-25T01:37:31.971Z,81.74
2019-02-25T01:38:32.064Z,81.55
2019-02-25T01:39:32.150Z,81.26
2019-02-25T01:40:32.238Z,81.45
2019-02-25T01:41:32.315Z,81.26
2019-02-25T01:42:32.418Z,81.26
2019-02-25T01:43:32.487Z,81.36
2019-02-25T01:44:32.582Z,81.26
2019-02-25T01:45:32.668Z,81.74
2019-02-25T01:46:32.748Z,81.74
2019-02-25T01:47:32.837Z,81.83
2019-02-25T01:48:32.919Z,81.74
2019-02-25T01:49:33.018Z,81.64
2019-02-25T01:50:33.098Z,81.26
2019-02-25T01:51:33.193Z,81.26
2019-02-25T01:52:33.276Z,81.74
2019-02-25T01:53:33.378Z,82.02
2019-02-25T01:54:33.469Z,81.74
2019-02-25T01:55:33.543Z,81.93
2019-02-25T01:56:33.639Z,82.31
2019-02-25T01:57:33.745Z,82.59
2019-02-25T01:58:33.812Z,82.59
2019-02-25T01:59:33.900Z,82.59
2019-02-25T02:00:33.976Z,83.15
2019-02-25T02:01:34.089Z,83.15
2019-02-25T02:02:34.155Z,82.97
2019-02-25T02:03:34.247Z,83.34
2019-02-25T02:04:34.332Z,82.50
2019-02-25T02:05:34.424Z,82.40
2019-02-25T02:06:34.531Z,82.31
2019-02-25T02:07:34.589Z,82.59
2019-02-25T02:08:34.690Z,82.59
2019-02-25T02:09:34.772Z,82.50
2019-02-25T02:10:34.857Z,82.50
2019-02-25T02:11:34.946Z,82.59
2019-02-25T02:12:35.034Z,82.59
2019-02-25T02:13:35.108Z,82.40
2019-02-25T02:14:35.197Z,82.50
2019-02-25T02:15:35.275Z,82.50
2019-02-25T02:16:35.361Z,82.50
2019-02-25T02:17:35.449Z,82.59
2019-02-25T02:18:35.524Z,82.50
2019-02-25T02:19:35.620Z,82.40
2019-02-25T02:20:35.701Z,82.31
2019-02-25T02:21:35.789Z,82.50
2019-02-25T02:22:35.881Z,83.15
2019-02-25T02:23:35.956Z,83.25
2019-02-25T02:24:36.060Z,83.53
2019-02-25T02:25:36.130Z,82.97
2019-02-25T02:26:36.218Z,82.59
2019-02-25T02:27:36.303Z,82.59
2019-02-25T02:28:36.390Z,82.40
2019-02-25T02:29:36.478Z,82.12
2019-02-25T02:30:36.557Z,82.59
2019-02-25T02:31:36.639Z,83.53
2019-02-25T02:32:36.736Z,83.34
2019-02-25T02:33:36.806Z,83.34
2019-02-25T02:34:36.893Z,83.53
2019-02-25T02:35:36.970Z,83.06
2019-02-25T02:36:37.069Z,82.97
2019-02-25T02:37:37.143Z,82.97
2019-02-25T02:38:37.304Z,82.40
2019-02-25T02:39:37.319Z,82.50
2019-02-25T02:40:37.409Z,82.50
2019-02-25T02:41:37.496Z,82.50
2019-02-25T02:42:37.580Z,82.21
2019-02-25T02:43:37.662Z,82.59
2019-02-25T02:44:37.746Z,82.78
2019-02-25T02:45:37.834Z,83.25
2019-02-25T02:46:37.920Z,82.97
2019-02-25T02:47:38.009Z,83.15
2019-02-25T02:48:38.085Z,83.34
2019-02-25T02:49:38.172Z,82.40
2019-02-25T02:50:38.354Z,82.59
2019-02-25T02:51:38.340Z,82.12
2019-02-25T02:52:38.423Z,82.50
2019-02-25T02:53:38.510Z,82.21
2019-02-25T02:54:38.591Z,83.53
2019-02-25T02:55:38.673Z,83.53
2019-02-25T02:56:38.758Z,82.50
2019-02-25T02:57:38.851Z,82.40
2019-02-25T02:58:38.931Z,82.68
2019-02-25T02:59:39.020Z,82.31
2019-02-25T03:00:39.101Z,81.93
2019-02-25T03:01:39.180Z,82.12
2019-02-25T03:02:39.268Z,82.12
2019-02-25T03:03:39.363Z,82.40
2019-02-25T03:04:39.439Z,82.31
2019-02-25T03:05:39.533Z,82.68
2019-02-25T03:06:39.617Z,82.68
2019-02-25T03:07:39.699Z,82.50
2019-02-25T03:08:39.786Z,82.12
2019-02-25T03:09:39.871Z,82.78
2019-02-25T03:10:39.969Z,82.59
2019-02-25T03:11:40.043Z,82.68
2019-02-25T03:12:40.123Z,82.50
2019-02-25T03:13:40.209Z,83.34
2019-02-25T03:14:40.303Z,82.87
2019-02-25T03:15:40.376Z,83.34
2019-02-25T03:16:40.466Z,83.53
2019-02-25T03:17:40.547Z,83.44
2019-02-25T03:18:40.647Z,83.63
2019-02-25T03:19:40.712Z,83.25
2019-02-25T03:20:40.807Z,83.63
2019-02-25T03:21:40.897Z,83.82
2019-02-25T03:22:40.982Z,83.44
2019-02-25T03:23:41.075Z,83.91
2019-02-25T03:24:41.151Z,83.91
2019-02-25T03:25:41.234Z,84.10
2019-02-25T03:26:41.314Z,84.01
2019-02-25T03:27:41.398Z,83.91
2019-02-25T03:28:41.480Z,83.91
2019-02-25T03:29:41.569Z,83.91
2019-02-25T03:30:41.654Z,83.91
2019-02-25T03:31:41.737Z,84.01
2019-02-25T03:32:41.818Z,83.82
2019-02-25T03:33:41.903Z,83.44
2019-02-25T03:34:41.989Z,83.63
2019-02-25T03:35:42.085Z,83.82
2019-02-25T03:36:42.155Z,83.91
2019-02-25T03:37:42.241Z,83.82
2019-02-25T03:38:42.327Z,83.91
2019-02-25T03:39:42.412Z,83.25
2019-02-25T03:40:42.497Z,83.44
2019-02-25T03:41:42.593Z,83.53
2019-02-25T03:42:42.672Z,83.34
2019-02-25T03:43:42.761Z,83.34
2019-02-25T03:44:42.855Z,83.21
2019-02-25T03:45:42.930Z,83.40
2019-02-25T03:46:42.997Z,83.59
2019-02-25T03:47:43.095Z,83.59
2019-02-25T03:48:43.159Z,83.40
2019-02-25T03:49:43.245Z,83.49
2019-02-25T03:50:43.330Z,83.49
2019-02-25T03:51:43.413Z,83.40
2019-02-25T03:52:43.502Z,83.49
2019-02-25T03:53:43.598Z,83.87
2019-02-25T03:54:43.683Z,83.68
2019-02-25T03:55:43.766Z,83.68
2019-02-25T03:56:43.865Z,83.59
2019-02-25T03:57:43.938Z,83.68
2019-02-25T03:58:44.024Z,83.87
2019-02-25T03:59:44.109Z,84.44
2019-02-25T04:00:44.211Z,84.25
2019-02-25T04:01:44.276Z,84.44
2019-02-25T04:02:44.374Z,84.44
2019-02-25T04:03:44.458Z,84.34
2019-02-25T04:04:44.535Z,84.63
2019-02-25T04:05:44.612Z,84.25
2019-02-25T04:06:44.698Z,84.06
2019-02-25T04:07:44.787Z,84.25
2019-02-25T04:08:44.875Z,84.34
2019-02-25T04:09:44.976Z,84.25
2019-02-25T04:10:45.049Z,84.16
2019-02-25T04:11:45.128Z,83.97
2019-02-25T04:12:45.219Z,84.72
2019-02-25T04:13:45.299Z,84.81
2019-02-25T04:14:45.403Z,84.72
2019-02-25T04:15:45.469Z,84.63
2019-02-25T04:16:45.560Z,85.00
2019-02-25T04:17:45.641Z,84.63
2019-02-25T04:18:45.729Z,84.63
2019-02-25T04:19:45.814Z,84.16
2019-02-25T04:20:45.898Z,84.25
2019-02-25T04:21:45.980Z,84.16
2019-02-25T04:22:46.071Z,84.25
2019-02-25T04:23:46.151Z,83.97
2019-02-25T04:24:46.238Z,84.16
2019-02-25T04:25:46.324Z,84.16
2019-02-25T04:26:46.418Z,84.16
2019-02-25T04:27:46.498Z,84.63
2019-02-25T04:28:46.583Z,84.53
2019-02-25T04:29:46.671Z,84.63
2019-02-25T04:30:46.761Z,84.81
2019-02-25T04:31:46.838Z,84.72
2019-02-25T04:32:46.927Z,84.25
2019-02-25T04:33:47.014Z,84.16
2019-02-25T04:34:47.093Z,84.06
2019-02-25T04:35:47.177Z,83.97
2019-02-25T04:36:47.265Z,84.34
2019-02-25T04:37:47.349Z,84.06
2019-02-25T04:38:47.438Z,84.16
2019-02-25T04:39:47.521Z,83.59
2019-02-25T04:40:47.605Z,83.87
2019-02-25T04:41:47.693Z,83.68
2019-02-25T04:42:47.781Z,83.78
2019-02-25T04:43:47.864Z,84.53
2019-02-25T04:44:47.950Z,84.16
2019-02-25T04:45:48.036Z,84.34
2019-02-25T04:46:48.132Z,84.25
2019-02-25T04:47:48.207Z,83.68
2019-02-25T04:48:48.292Z,83.49
2019-02-25T04:49:48.375Z,83.68
2019-02-25T04:50:48.459Z,83.87
2019-02-25T04:51:48.541Z,84.34
2019-02-25T04:52:48.632Z,84.16
2019-02-25T04:53:48.719Z,84.81
2019-02-25T04:54:48.805Z,84.81
2019-02-25T04:55:48.895Z,84.91
2019-02-25T04:56:48.982Z,84.72
2019-02-25T04:57:49.076Z,84.91
2019-02-25T04:58:49.271Z,84.81
2019-02-25T04:59:49.231Z,84.72
2019-02-25T05:00:49.325Z,84.72
2019-02-25T05:01:49.407Z,84.72
2019-02-25T05:02:49.487Z,84.72
2019-02-25T05:03:49.572Z,84.72
2019-02-25T05:04:49.658Z,84.63
2019-02-25T05:05:49.747Z,84.34
2019-02-25T05:06:49.826Z,84.16
2019-02-25T05:07:49.914Z,84.06
2019-02-25T05:08:50.001Z,84.63
2019-02-25T05:09:50.093Z,84.91
2019-02-25T05:10:50.162Z,84.81
2019-02-25T05:11:50.279Z,85.57
2019-02-25T05:12:50.347Z,84.91
2019-02-25T05:13:50.435Z,85.57
2019-02-25T05:14:50.520Z,84.63
2019-02-25T05:15:50.599Z,84.16
2019-02-25T05:16:50.686Z,84.16
2019-02-25T05:17:50.774Z,85.00
2019-02-25T05:18:50.866Z,84.81
2019-02-25T05:19:50.943Z,84.63
2019-02-25T05:20:51.034Z,84.72
2019-02-25T05:21:51.114Z,84.72
2019-02-25T05:22:51.194Z,84.72
2019-02-25T05:23:51.286Z,84.63
2019-02-25T05:24:51.380Z,85.28
2019-02-25T05:25:51.462Z,85.47
2019-02-25T05:26:51.545Z,85.28
2019-02-25T05:27:51.627Z,85.85
2019-02-25T05:28:51.712Z,85.28
2019-02-25T05:29:51.795Z,84.53
2019-02-25T05:30:51.875Z,84.81
2019-02-25T05:31:51.982Z,84.63
2019-02-25T05:32:52.054Z,84.63
2019-02-25T05:33:52.131Z,84.72
2019-02-25T05:34:52.217Z,84.63
2019-02-25T05:35:52.305Z,85.38
2019-02-25T05:36:52.388Z,85.38
2019-02-25T05:37:52.479Z,85.19
2019-02-25T05:38:52.571Z,85.00
2019-02-25T05:39:52.656Z,85.19
2019-02-25T05:40:52.725Z,85.28
2019-02-25T05:41:52.815Z,85.47
2019-02-25T05:42:52.897Z,85.38
2019-02-25T05:43:52.983Z,85.57
2019-02-25T05:44:53.075Z,85.28
2019-02-25T05:45:53.156Z,85.19
2019-02-25T05:46:53.243Z,85.28
2019-02-25T05:47:53.330Z,85.66
2019-02-25T05:48:53.399Z,85.28
2019-02-25T05:49:53.490Z,85.38
2019-02-25T05:50:53.576Z,85.19
2019-02-25T05:51:53.655Z,85.38
2019-02-25T05:52:53.745Z,85.10
2019-02-25T05:53:53.830Z,85.10
2019-02-25T05:54:53.914Z,85.38
2019-02-25T05:55:53.991Z,85.10
2019-02-25T05:56:54.076Z,85.10
2019-02-25T05:57:54.176Z,85.19
2019-02-25T05:58:54.275Z,85.10
2019-02-25T05:59:54.386Z,85.66
2019-02-25T06:00:54.469Z,85.57
2019-02-25T06:01:54.517Z,85.28
2019-02-25T06:02:54.578Z,85.57
2019-02-25T06:03:54.651Z,85.38
2019-02-25T06:04:54.717Z,84.72
2019-02-25T06:05:54.796Z,85.10
2019-02-25T06:06:54.956Z,85.57
2019-02-25T06:07:54.993Z,85.28
2019-02-25T06:10:49.356Z,85.28
2019-02-25T06:11:49.443Z,85.47
2019-02-25T06:12:49.526Z,85.47
2019-02-25T06:13:49.610Z,85.38
2019-02-25T06:14:49.696Z,85.66
2019-02-25T06:15:51.289Z,85.19
2019-02-25T06:16:49.863Z,85.19
2019-02-25T06:17:49.948Z,85.28
2019-02-25T06:18:50.038Z,85.38
2019-02-25T06:19:50.121Z,85.19
2019-02-25T06:20:50.210Z,85.38
2019-02-25T06:21:50.299Z,85.57
2019-02-25T06:22:50.386Z,86.14
2019-02-25T06:23:50.471Z,85.76
2019-02-25T06:24:50.560Z,86.14
2019-02-25T06:25:50.648Z,85.76
2019-02-25T06:26:50.735Z,85.76
2019-02-25T06:27:50.853Z,85.28
2019-02-25T06:28:50.931Z,85.28
2019-02-25T06:29:51.051Z,85.47
2019-02-25T06:30:51.095Z,85.47
2019-02-25T06:31:51.193Z,85.19
2019-02-25T06:32:51.276Z,85.38
2019-02-25T06:33:51.360Z,85.57
2019-02-25T06:34:51.447Z,84.81
2019-02-25T06:35:51.541Z,85.57
2019-02-25T06:36:51.623Z,85.47
2019-02-25T06:37:51.693Z,85.57
2019-02-25T06:38:51.782Z,85.66
2019-02-25T06:39:51.871Z,85.47
2019-02-25T06:40:51.955Z,85.47
2019-02-25T06:41:52.044Z,85.47
2019-02-25T06:42:52.131Z,85.47
2019-02-25T06:43:52.221Z,85.66
2019-02-25T06:44:52.299Z,85.66
2019-02-25T06:45:52.383Z,85.47
2019-02-25T06:46:52.501Z,85.66
2019-02-25T06:47:52.557Z,85.19
2019-02-25T06:48:52.640Z,85.57
2019-02-25T06:49:52.725Z,85.10
2019-02-25T06:50:52.815Z,85.19
2019-02-25T06:51:52.905Z,85.28
2019-02-25T06:52:52.984Z,85.28
2019-02-25T06:53:53.077Z,85.10
2019-02-25T06:54:53.158Z,85.19
2019-02-25T06:55:53.243Z,85.28
2019-02-25T06:56:53.334Z,85.10
2019-02-25T06:57:53.416Z,85.19
2019-02-25T06:58:53.504Z,85.00
2019-02-25T06:59:53.592Z,85.10
2019-02-25T07:00:53.674Z,85.57
2019-02-25T07:01:53.761Z,85.57
2019-02-25T07:02:53.849Z,85.19
2019-02-25T07:03:53.936Z,85.28
2019-02-25T07:04:54.020Z,85.10
2019-02-25T07:05:54.110Z,85.28
2019-02-25T07:06:54.194Z,84.53
2019-02-25T07:07:54.279Z,85.00
2019-02-25T07:08:54.365Z,84.53
2019-02-25T07:09:54.451Z,84.91
2019-02-25T07:10:54.536Z,84.63
2019-02-25T07:11:54.622Z,84.91
2019-02-25T07:12:54.710Z,85.10
2019-02-25T07:13:54.793Z,84.81
2019-02-25T07:14:54.880Z,84.91
2019-02-25T07:15:54.969Z,84.63
2019-02-25T07:16:57.131Z,84.34
2019-02-25T07:17:55.145Z,84.39
2019-02-25T07:18:55.228Z,84.48
2019-02-25T07:19:55.347Z,84.77
2019-02-25T07:20:55.394Z,84.77
2019-02-25T07:21:55.475Z,84.01
2019-02-25T07:22:55.557Z,84.10
2019-02-25T07:23:55.640Z,84.29
2019-02-25T07:24:55.728Z,84.29
2019-02-25T07:25:55.815Z,83.63
2019-02-25T07:26:55.900Z,84.01
2019-02-25T07:27:55.986Z,83.63
2019-02-25T07:28:56.069Z,84.01
2019-02-25T07:29:56.155Z,83.63
2019-02-25T07:30:56.239Z,83.53
2019-02-25T07:31:56.327Z,83.53
2019-02-25T07:32:56.414Z,83.34
2019-02-25T07:33:56.503Z,83.44
2019-02-25T07:34:56.588Z,83.15
2019-02-25T07:35:56.675Z,83.06
2019-02-25T07:36:56.760Z,83.25
2019-02-25T07:37:56.854Z,83.25
2019-02-25T07:38:56.938Z,82.59
2019-02-25T07:39:57.021Z,82.78
2019-02-25T07:40:57.112Z,82.87
2019-02-25T07:41:57.196Z,82.50
2019-02-25T07:42:57.284Z,82.59
2019-02-25T07:43:57.369Z,82.12
2019-02-25T07:44:57.454Z,81.74
2019-02-25T07:45:57.545Z,81.74
2019-02-25T07:46:57.630Z,81.21
2019-02-25T07:47:57.715Z,81.21
2019-02-25T07:48:57.803Z,81.30
2019-02-25T07:49:57.889Z,81.30
2019-02-25T07:50:57.978Z,81.21
2019-02-25T07:51:58.067Z,81.02
2019-02-25T07:52:58.150Z,80.93
2019-02-25T07:53:58.234Z,80.55
2019-02-25T07:54:58.321Z,81.30
2019-02-25T07:56:02.282Z,80.64
2019-02-25T07:56:58.503Z,80.83
2019-02-25T07:57:58.581Z,80.74
2019-02-25T07:58:58.670Z,80.68
2019-02-25T07:59:58.757Z,80.17
2019-02-25T08:00:58.842Z,80.30
2019-02-25T08:01:58.929Z,79.55
2019-02-25T08:02:59.010Z,79.74
2019-02-25T08:03:59.097Z,79.64
2019-02-25T08:04:59.185Z,79.26
2019-02-25T08:05:59.263Z,79.36
2019-02-25T08:06:59.375Z,79.55
2019-02-25T08:07:59.441Z,79.55
2019-02-25T08:08:59.517Z,79.36
2019-02-25T08:09:59.626Z,79.07
2019-02-25T08:10:59.685Z,78.98
2019-02-25T08:11:59.766Z,79.07
2019-02-25T08:12:59.859Z,78.59
2019-02-25T08:13:59.939Z,77.94
2019-02-25T08:15:00.011Z,78.13
2019-02-25T08:16:00.093Z,78.31
2019-02-25T08:17:00.193Z,77.94
2019-02-25T08:18:00.253Z,77.75
2019-02-25T08:19:00.339Z,77.56
2019-02-25T08:20:00.429Z,76.93
2019-02-25T08:21:00.517Z,76.93
2019-02-25T08:22:00.604Z,77.03
2019-02-25T08:23:00.717Z,76.84
2019-02-25T08:24:00.776Z,77.22
2019-02-25T08:25:00.872Z,76.27
2019-02-25T08:26:00.960Z,76.55
2019-02-25T08:27:01.047Z,76.17
2019-02-25T08:28:01.129Z,75.42
2019-02-25T08:29:01.212Z,75.51
2019-02-25T08:30:01.302Z,75.13
2019-02-25T08:31:01.392Z,75.51
2019-02-25T08:32:01.472Z,75.51
2019-02-25T08:33:01.562Z,76.08
2019-02-25T08:34:01.652Z,75.98
2019-02-25T08:35:01.762Z,75.60
2019-02-25T08:36:01.855Z,75.98
2019-02-25T08:37:02.623Z,75.04
2019-02-25T08:38:02.027Z,74.95
2019-02-25T08:39:02.111Z,74.75
2019-02-25T08:40:02.201Z,74.37
2019-02-25T08:41:02.289Z,73.99
2019-02-25T08:42:02.375Z,73.71
2019-02-25T08:43:02.462Z,73.43
2019-02-25T08:44:02.548Z,72.86
2019-02-25T08:45:02.647Z,72.52
2019-02-25T08:46:02.731Z,72.04
2019-02-25T08:47:02.819Z,71.95
2019-02-25T08:48:02.940Z,72.04
2019-02-25T08:49:02.988Z,71.95
2019-02-25T08:50:03.078Z,72.04
2019-02-25T08:51:03.168Z,71.95
2019-02-25T08:52:03.247Z,71.95
2019-02-25T08:53:03.333Z,72.14
2019-02-25T08:54:03.422Z,72.04
2019-02-25T08:55:03.508Z,72.14
2019-02-25T08:56:03.596Z,72.14
2019-02-25T08:57:03.680Z,72.23
2019-02-25T08:58:03.765Z,72.14
2019-02-25T08:59:03.856Z,72.14
2019-02-25T09:00:03.946Z,71.66
2019-02-25T09:01:04.035Z,71.32
2019-02-25T09:02:04.138Z,70.75
2019-02-25T09:03:04.205Z,70.56
2019-02-25T09:04:04.293Z,70.56
2019-02-25T09:05:04.383Z,70.56
2019-02-25T09:06:04.458Z,70.56
2019-02-25T09:07:04.549Z,70.56
2019-02-25T09:08:04.631Z,70.65
2019-02-25T09:09:04.721Z,70.47
2019-02-25T09:10:04.810Z,70.56
2019-02-25T09:11:13.750Z,70.75
2019-02-25T09:12:04.986Z,70.84
2019-02-25T09:13:05.075Z,70.94
2019-02-25T09:14:05.168Z,70.47
2019-02-25T09:15:05.257Z,70.47
2019-02-25T09:16:05.347Z,70.65
2019-02-25T09:17:05.434Z,70.50
2019-02-25T09:18:05.529Z,69.52
2019-02-25T09:19:05.613Z,70.03
2019-02-25T09:20:05.702Z,69.46
2019-02-25T09:21:05.788Z,69.27
2019-02-25T09:22:05.877Z,68.98
2019-02-25T09:23:05.973Z,68.23
2019-02-25T09:24:06.060Z,68.51
2019-02-25T09:25:06.149Z,67.94
2019-02-25T09:26:06.234Z,67.94
2019-02-25T09:27:06.321Z,68.04
2019-02-25T09:28:06.406Z,67.94
2019-02-25T09:29:06.499Z,67.65
2019-02-25T09:30:06.587Z,67.46
2019-02-25T09:31:06.670Z,66.71
2019-02-25T09:32:06.765Z,66.42
2019-02-25T09:33:06.850Z,66.64
2019-02-25T09:34:06.939Z,65.98
2019-02-25T09:35:07.030Z,65.88
2019-02-25T09:36:07.119Z,66.17
2019-02-25T09:37:07.205Z,66.27
2019-02-25T09:38:07.298Z,66.36
2019-02-25T09:39:07.379Z,66.27
2019-02-25T09:40:07.474Z,65.79
2019-02-25T09:41:07.558Z,65.60
2019-02-25T09:42:07.642Z,65.69
2019-02-25T09:43:07.723Z,64.97
2019-02-25T09:44:07.822Z,64.59
2019-02-25T09:45:07.908Z,64.59
2019-02-25T09:46:07.994Z,64.30
2019-02-25T09:47:08.087Z,63.92
2019-02-25T09:48:08.180Z,63.83
2019-02-25T09:49:08.270Z,62.78
2019-02-25T09:50:08.348Z,62.59
2019-02-25T09:51:08.439Z,62.50
2019-02-25T09:52:08.524Z,62.50
2019-02-25T09:53:08.616Z,62.02
2019-02-25T09:54:08.707Z,62.31
2019-02-25T09:55:08.806Z,61.74
2019-02-25T09:56:08.894Z,61.65
2019-02-25T09:57:08.989Z,61.68
2019-02-25T09:58:09.079Z,60.91
2019-02-25T09:59:09.170Z,61.29
2019-02-25T10:00:09.256Z,61.01
2019-02-25T10:01:09.367Z,60.35
2019-02-25T10:02:09.463Z,59.96
2019-02-25T10:03:09.536Z,59.11
2019-02-25T10:04:09.629Z,58.83
2019-02-25T10:05:09.716Z,58.18
2019-02-25T10:06:09.811Z,57.52
2019-02-25T10:07:09.894Z,56.67
2019-02-25T10:08:10.023Z,56.29
2019-02-25T10:09:10.122Z,56.48
2019-02-25T10:10:10.200Z,55.71
2019-02-25T10:11:10.289Z,55.62
2019-02-25T10:12:10.383Z,56.19
2019-02-25T10:13:10.470Z,55.43
2019-02-25T10:14:10.573Z,55.15
2019-02-25T10:15:10.648Z,54.19
2019-02-25T10:16:10.742Z,54.19
2019-02-25T10:17:10.820Z,54.03
2019-02-25T10:18:10.920Z,53.94
2019-02-25T10:19:11.012Z,53.46
2019-02-25T10:20:11.104Z,54.03
2019-02-25T10:21:11.209Z,53.46
2019-02-25T10:22:11.272Z,53.84
2019-02-25T10:23:11.361Z,52.61
2019-02-25T10:24:11.452Z,52.82
2019-02-25T10:25:11.559Z,52.63
2019-02-25T10:26:11.630Z,53.58
2019-02-25T10:27:11.725Z,54.44
2019-02-25T10:28:11.814Z,54.06
2019-02-25T10:29:11.916Z,54.06
2019-02-25T10:30:12.001Z,53.77
2019-02-25T10:31:13.150Z,53.58
2019-02-25T10:32:12.178Z,53.11
2019-02-25T10:33:12.277Z,53.11
2019-02-25T10:34:12.372Z,53.04
2019-02-25T10:35:12.458Z,52.75
2019-02-25T10:36:12.544Z,51.04
2019-02-25T10:37:13.198Z,51.23
2019-02-25T10:38:12.731Z,51.51
2019-02-25T10:39:14.929Z,51.04
2019-02-25T10:40:13.666Z,51.04
2019-02-25T10:41:13.011Z,50.30
2019-02-25T10:42:13.101Z,49.04
2019-02-25T10:43:13.191Z,49.04
2019-02-25T10:44:13.281Z,49.16
2019-02-25T10:45:13.579Z,48.87
2019-02-25T10:46:15.410Z,48.30
2019-02-25T10:47:15.301Z,48.21
2019-02-25T10:48:15.192Z,47.82
2019-02-25T10:49:13.744Z,47.54
2019-02-25T10:50:13.834Z,46.97
2019-02-25T10:51:13.928Z,47.25
2019-02-25T10:52:15.176Z,46.97
2019-02-25T10:53:15.703Z,47.08
2019-02-25T10:54:14.797Z,46.61
2019-02-25T10:55:14.296Z,46.23
2019-02-25T10:56:16.237Z,46.32
2019-02-25T10:57:14.481Z,46.32
2019-02-25T10:58:14.571Z,45.56
2019-02-25T10:59:14.665Z,44.32
2019-02-25T11:00:14.756Z,43.37
2019-02-25T11:01:17.499Z,43.56
2019-02-25T11:02:15.337Z,43.27
2019-02-25T11:03:15.300Z,43.39
2019-02-25T11:04:15.740Z,43.77
2019-02-25T11:05:15.223Z,44.53
2019-02-25T11:06:15.315Z,44.44
2019-02-25T11:07:15.408Z,44.44
2019-02-25T11:08:15.501Z,44.82
2019-02-25T11:09:16.380Z,44.34
2019-02-25T11:10:16.539Z,44.34
2019-02-25T11:11:16.365Z,43.39
2019-02-25T11:12:15.869Z,43.20
2019-02-25T11:13:15.960Z,42.91
2019-02-25T11:14:16.052Z,42.74
2019-02-25T11:15:16.147Z,42.46
2019-02-25T11:16:18.180Z,42.08
2019-02-25T11:17:18.168Z,41.98
2019-02-25T11:18:17.986Z,42.65
2019-02-25T11:19:16.539Z,42.84
2019-02-25T11:20:16.687Z,42.36
2019-02-25T11:21:16.726Z,42.46
2019-02-25T11:22:16.824Z,42.17
2019-02-25T11:23:17.671Z,42.27
2019-02-25T11:24:18.644Z,42.17
2019-02-25T11:25:17.200Z,42.19
2019-02-25T11:26:17.203Z,42.38
2019-02-25T11:27:17.294Z,41.62
2019-02-25T11:28:25.499Z,42.00
2019-02-25T11:29:17.483Z,41.91
2019-02-25T11:30:19.353Z,41.81
2019-02-25T11:31:22.149Z,42.10
2019-02-25T11:32:19.877Z,41.62
2019-02-25T11:33:17.878Z,41.62
2019-02-25T11:34:17.975Z,41.35
2019-02-25T11:35:18.070Z,41.26
2019-02-25T11:36:20.198Z,41.16
2019-02-25T11:37:19.720Z,42.40
2019-02-25T11:38:18.358Z,42.50
2019-02-25T11:39:18.469Z,41.64
2019-02-25T11:40:18.560Z,40.88
2019-02-25T11:41:18.654Z,40.88
2019-02-25T11:42:20.527Z,40.70
2019-02-25T11:43:21.389Z,40.52
2019-02-25T11:44:21.001Z,39.94
2019-02-25T11:45:19.032Z,40.23
2019-02-25T11:46:19.138Z,40.03
2019-02-25T11:47:19.237Z,39.94
2019-02-25T11:48:19.339Z,40.03
2019-02-25T11:49:19.431Z,40.52
2019-02-25T11:50:19.527Z,40.34
2019-02-25T11:54:03.758Z,39.10
2019-02-25T11:55:03.849Z,39.67
2019-02-25T11:56:03.949Z,39.58
2019-02-25T11:57:04.037Z,39.48
2019-02-25T11:58:04.139Z,39.67
2019-02-25T11:59:04.216Z,39.39
2019-02-25T12:00:04.317Z,39.10
2019-02-25T12:01:04.411Z,38.93
2019-02-25T12:02:04.504Z,38.07
2019-02-25T12:03:04.597Z,38.26
2019-02-25T12:04:04.684Z,37.97
2019-02-25T12:05:04.790Z,38.26
2019-02-25T12:06:04.886Z,36.73
2019-02-25T12:07:04.976Z,35.96
2019-02-25T12:08:05.070Z,35.10
2019-02-25T12:09:05.167Z,35.00
2019-02-25T12:10:05.261Z,34.91
2019-02-25T12:11:05.358Z,35.22
2019-02-25T12:12:05.445Z,35.98
2019-02-25T12:13:05.546Z,35.31
2019-02-25T12:14:05.651Z,35.41
2019-02-25T12:15:05.726Z,35.31
2019-02-25T12:16:05.819Z,35.88
2019-02-25T12:17:05.905Z,35.98
2019-02-25T12:18:06.007Z,35.41
2019-02-25T12:19:06.104Z,35.22
2019-02-25T12:20:06.197Z,35.41
2019-02-25T12:21:06.295Z,35.98
2019-02-25T12:22:06.387Z,36.00
2019-02-25T12:23:06.481Z,36.19
2019-02-25T12:24:06.577Z,36.38
2019-02-25T12:25:06.675Z,36.29
2019-02-25T12:26:06.767Z,36.96
2019-02-25T12:27:06.862Z,37.24
2019-02-25T12:28:06.956Z,37.24
2019-02-25T12:29:10.897Z,37.15
2019-02-25T12:30:07.155Z,37.34
2019-02-25T12:31:07.249Z,37.43
2019-02-25T12:32:07.345Z,38.01
2019-02-25T12:33:07.437Z,38.01
2019-02-25T12:34:07.528Z,37.82
2019-02-25T12:35:07.629Z,37.72
2019-02-25T12:36:07.722Z,38.01
2019-02-25T12:37:07.842Z,37.72
2019-02-25T12:38:07.914Z,37.74
2019-02-25T12:39:08.009Z,37.84
2019-02-25T12:40:08.106Z,37.93
2019-02-25T12:41:08.202Z,37.93
2019-02-25T12:42:08.296Z,37.26
2019-02-25T12:43:08.390Z,37.93
2019-02-25T12:44:08.484Z,37.55
2019-02-25T12:45:08.576Z,37.74
2019-02-25T12:46:08.674Z,37.74
2019-02-25T12:47:08.769Z,37.55
2019-02-25T12:48:08.863Z,37.65
2019-02-25T12:49:08.959Z,37.93
2019-02-25T12:50:09.053Z,38.32
2019-02-25T12:51:09.145Z,38.12
2019-02-25T12:52:09.244Z,37.55
2019-02-25T12:53:09.339Z,38.12
2019-02-25T12:54:09.437Z,38.41
2019-02-25T12:55:09.530Z,38.22
2019-02-25T12:56:09.648Z,38.12
2019-02-25T12:57:09.743Z,38.60
2019-02-25T12:58:09.842Z,38.60